Time;durP1;ratioP1;P1;durP2;ratioP2;P2;SDS_P1;SDS_P2;PMS_P1;PMS_P2;Temp;Humidity;BMP_temperature;BMP_pressure;BME280_temperature;BME280_humidity;BME280_pressure;Samples;Min_cycle;Max_cycle;Signal;HPM_P1;HPM_P2
2021/03/16 00:01:33;;;;;;;9.60;3.78;;;;;;;;;;4967981;28;20051;-80
2021/03/16 00:04:00;;;;;;;13.38;4.20;;;;;;;;;;4952805;28;20047;-80
2021/03/16 00:06:27;;;;;;;18.27;4.18;;;;;;;;;;4953769;29;20114;-79
2021/03/16 00:08:54;;;;;;;13.75;4.30;;;;;;;;;;4967609;28;20476;-80
2021/03/16 00:11:20;;;;;;;18.65;4.03;;;;;;;;;;4953326;28;20338;-79
2021/03/16 00:13:47;;;;;;;12.10;3.88;;;;;;;;;;4952824;28;20059;-80
2021/03/16 00:16:14;;;;;;;13.13;3.97;;;;;;;;;;4968008;28;20539;-79
2021/03/16 00:18:41;;;;;;;7.90;3.30;;;;;;;;;;4967574;28;20102;-80
2021/03/16 00:21:07;;;;;;;17.08;3.17;;;;;;;;;;4953088;28;20051;-80
2021/03/16 00:23:34;;;;;;;13.20;3.28;;;;;;;;;;4952771;29;20547;-80
2021/03/16 00:26:01;;;;;;;8.95;2.80;;;;;;;;;;4967589;28;20408;-80
2021/03/16 00:28:27;;;;;;;18.30;3.80;;;;;;;;;;4952797;28;20117;-80
2021/03/16 00:30:54;;;;;;;15.30;3.50;;;;;;;;;;4967075;28;20106;-80
2021/03/16 00:33:21;;;;;;;14.32;3.25;;;;;;;;;;4952074;28;20062;-80
2021/03/16 00:35:49;;;;;;;10.32;3.17;;;;;;;;;;4951618;29;20636;-79
2021/03/16 00:38:16;;;;;;;12.05;3.17;;;;;;;;;;4952026;29;20051;-80
2021/03/16 00:40:43;;;;;;;13.85;3.15;;;;;;;;;;4966287;28;20055;-79
2021/03/16 00:43:10;;;;;;;7.70;3.03;;;;;;;;;;4967443;28;20496;-79
2021/03/16 00:45:36;;;;;;;13.40;3.13;;;;;;;;;;4951436;28;20047;-79
2021/03/16 00:48:04;;;;;;;12.05;2.97;;;;;;;;;;4966576;28;20389;-78
2021/03/16 00:50:31;;;;;;;19.98;3.53;;;;;;;;;;4952279;28;20082;-78
2021/03/16 00:52:58;;;;;;;6.70;2.42;;;;;;;;;;4952281;29;20851;-79
2021/03/16 00:55:35;;;;;;;15.52;2.80;;;;;;;;;;4965332;28;20077;-79
2021/03/16 00:58:01;;;;;;;14.27;2.92;;;;;;;;;;4951581;28;20055;-78
2021/03/16 01:00:28;;;;;;;13.63;3.30;;;;;;;;;;4951776;28;20094;-79
2021/03/16 01:02:55;;;;;;;11.38;2.90;;;;;;;;;;4951404;28;20365;-78
2021/03/16 01:05:22;;;;;;;8.80;2.33;;;;;;;;;;4965985;28;20043;-78
2021/03/16 01:07:48;;;;;;;15.25;2.90;;;;;;;;;;4951643;28;20130;-79
2021/03/16 01:10:16;;;;;;;12.60;3.40;;;;;;;;;;4966570;28;20624;-79
2021/03/16 01:12:44;;;;;;;12.77;3.08;;;;;;;;;;4952451;28;20617;-79
2021/03/16 01:15:12;;;;;;;9.57;2.80;;;;;;;;;;4966139;28;20718;-78
2021/03/16 01:17:39;;;;;;;10.73;3.05;;;;;;;;;;4965868;28;20146;-79
2021/03/16 01:20:13;;;;;;;13.30;2.50;;;;;;;;;;4951016;28;20054;-79
2021/03/16 01:22:40;;;;;;;14.05;2.63;;;;;;;;;;4949874;28;20055;-79
2021/03/16 01:25:07;;;;;;;10.57;3.00;;;;;;;;;;4964569;28;20081;-79
2021/03/16 01:27:34;;;;;;;16.00;3.22;;;;;;;;;;4949282;28;20055;-80
2021/03/16 01:30:01;;;;;;;9.82;3.10;;;;;;;;;;4950458;28;20471;-79
2021/03/16 01:32:27;;;;;;;10.07;3.40;;;;;;;;;;4951358;29;20043;-79
2021/03/16 01:34:54;;;;;;;15.07;3.08;;;;;;;;;;4951373;29;20114;-78
2021/03/16 01:37:21;;;;;;;12.98;3.80;;;;;;;;;;4965806;28;20150;-78
2021/03/16 01:39:48;;;;;;;12.43;3.53;;;;;;;;;;4965268;28;20051;-79
2021/03/16 01:42:15;;;;;;;13.88;4.18;;;;;;;;;;4965814;28;20142;-79
2021/03/16 01:44:43;;;;;;;14.95;3.47;;;;;;;;;;4966142;28;20097;-78
2021/03/16 01:47:11;;;;;;;17.90;3.97;;;;;;;;;;4965387;28;20448;-78
2021/03/16 01:49:39;;;;;;;12.38;4.50;;;;;;;;;;4950443;28;20063;-79
2021/03/16 01:52:07;;;;;;;13.32;4.20;;;;;;;;;;4965333;28;20048;-78
2021/03/16 01:54:34;;;;;;;10.60;3.10;;;;;;;;;;4950563;28;20489;-78
2021/03/16 01:57:02;;;;;;;19.67;4.05;;;;;;;;;;4950651;29;20075;-78
2021/03/16 01:59:29;;;;;;;12.00;3.38;;;;;;;;;;4950501;28;20075;-78
2021/03/16 02:01:56;;;;;;;21.05;4.45;;;;;;;;;;4950286;29;20723;-78
2021/03/16 02:04:23;;;;;;;20.77;4.68;;;;;;;;;;4950592;29;20528;-78
2021/03/16 02:06:49;;;;;;;15.63;3.80;;;;;;;;;;4964902;28;20155;-78
2021/03/16 02:09:22;;;;;;;16.08;4.07;;;;;;;;;;4950463;29;20118;-78
2021/03/16 02:11:53;;;;;;;22.38;5.15;;;;;;;;;;4950590;29;20191;-78
2021/03/16 02:14:25;;;;;;;14.55;4.32;;;;;;;;;;4964954;28;20090;-79
2021/03/16 02:17:03;;;;;;;14.35;4.55;;;;;;;;;;4950570;28;20048;-79
2021/03/16 02:19:38;;;;;;;14.23;5.25;;;;;;;;;;4950302;29;20404;-78
2021/03/16 02:22:06;;;;;;;14.77;4.90;;;;;;;;;;4965049;28;20784;-79
2021/03/16 02:24:41;;;;;;;13.77;5.50;;;;;;;;;;4950155;28;20142;-79
2021/03/16 02:27:08;;;;;;;;;;;;;;;;;;4964950;28;20544;-78
2021/03/16 02:29:47;;;;;;;20.67;5.40;;;;;;;;;;4964648;28;19957;-78
2021/03/16 02:32:19;;;;;;;14.27;4.63;;;;;;;;;;4965637;28;20059;-78
2021/03/16 02:34:51;;;;;;;13.48;5.68;;;;;;;;;;4950094;28;20114;-77
2021/03/16 02:37:19;;;;;;;18.92;5.68;;;;;;;;;;4968568;28;20095;-78
2021/03/16 02:39:47;;;;;;;17.02;5.75;;;;;;;;;;4953286;28;20109;-79
2021/03/16 02:42:15;;;;;;;17.48;6.25;;;;;;;;;;4953661;28;20403;-78
2021/03/16 02:44:43;;;;;;;17.33;6.00;;;;;;;;;;4953470;28;20543;-78
2021/03/16 02:47:10;;;;;;;17.15;6.40;;;;;;;;;;4953853;28;20122;-78
2021/03/16 02:49:39;;;;;;;14.48;5.70;;;;;;;;;;4967869;28;20051;-78
2021/03/16 02:52:06;;;;;;;16.95;5.50;;;;;;;;;;4968764;28;20146;-79
2021/03/16 02:54:33;;;;;;;22.13;6.13;;;;;;;;;;4953351;28;20054;-78
2021/03/16 02:57:08;;;;;;;16.13;5.63;;;;;;;;;;4953099;28;20074;-78
2021/03/16 02:59:35;;;;;;;18.77;4.78;;;;;;;;;;4953192;29;20070;-78
2021/03/16 03:02:02;;;;;;;16.92;5.65;;;;;;;;;;4951145;29;20063;-78
2021/03/16 03:04:30;;;;;;;20.08;4.93;;;;;;;;;;4966297;28;20138;-78
2021/03/16 03:06:59;;;;;;;17.60;4.40;;;;;;;;;;4952868;28;20051;-78
2021/03/16 03:09:26;;;;;;;18.83;5.05;;;;;;;;;;4967650;28;20559;-78
2021/03/16 03:11:52;;;;;;;15.90;4.40;;;;;;;;;;4967895;28;20050;-78
2021/03/16 03:14:19;;;;;;;13.23;4.43;;;;;;;;;;4967815;28;20143;-78
2021/03/16 03:16:46;;;;;;;20.33;4.68;;;;;;;;;;4967403;28;20106;-78
2021/03/16 03:19:13;;;;;;;18.70;4.20;;;;;;;;;;4952464;28;20054;-78
2021/03/16 03:21:49;;;;;;;15.40;4.32;;;;;;;;;;4967688;28;20480;-78
2021/03/16 03:24:21;;;;;;;16.10;4.22;;;;;;;;;;4952775;28;20090;-78
2021/03/16 03:26:55;;;;;;;18.25;4.43;;;;;;;;;;4967646;28;20137;-78
2021/03/16 03:29:24;;;;;;;14.93;4.18;;;;;;;;;;4967227;28;20095;-78
2021/03/16 03:31:51;;;;;;;14.48;3.83;;;;;;;;;;4967226;28;20090;-77
2021/03/16 03:34:18;;;;;;;11.45;3.88;;;;;;;;;;4967308;28;20093;-78
2021/03/16 03:36:48;;;;;;;15.50;3.92;;;;;;;;;;4952544;28;20146;-77
2021/03/16 03:39:15;;;;;;;13.10;4.07;;;;;;;;;;4952221;29;20492;-78
2021/03/16 03:41:42;;;;;;;9.80;3.53;;;;;;;;;;4951619;29;20051;-77
2021/03/16 03:44:09;;;;;;;14.50;4.18;;;;;;;;;;4950983;29;20082;-78
2021/03/16 03:46:38;;;;;;;13.95;3.75;;;;;;;;;;4951427;28;20138;-77
2021/03/16 03:49:05;;;;;;;10.38;3.83;;;;;;;;;;4966966;28;20043;-77
2021/03/16 03:51:36;;;;;;;17.08;4.63;;;;;;;;;;4952293;29;20118;-77
2021/03/16 03:54:03;;;;;;;11.48;3.50;;;;;;;;;;4952131;28;20795;-78
2021/03/16 03:56:30;;;;;;;15.90;4.00;;;;;;;;;;4952507;28;20083;-77
2021/03/16 03:58:58;;;;;;;10.95;2.80;;;;;;;;;;4966577;28;20113;-77
2021/03/16 04:01:26;;;;;;;18.45;3.78;;;;;;;;;;4966304;28;20078;-77
2021/03/16 04:03:53;;;;;;;21.67;3.95;;;;;;;;;;4951287;28;20062;-77
2021/03/16 04:06:22;;;;;;;13.02;3.85;;;;;;;;;;4951742;28;20102;-77
2021/03/16 04:08:50;;;;;;;12.70;3.60;;;;;;;;;;4966894;28;20074;-78
2021/03/16 04:11:18;;;;;;;14.40;3.75;;;;;;;;;;4951522;28;20460;-77
2021/03/16 04:13:46;;;;;;;13.38;3.55;;;;;;;;;;4966230;28;20696;-78
2021/03/16 04:16:13;;;;;;;21.02;3.30;;;;;;;;;;4965780;28;20134;-78
2021/03/16 04:18:41;;;;;;;11.95;4.05;;;;;;;;;;4951254;29;20718;-78
2021/03/16 04:21:07;;;;;;;15.25;3.88;;;;;;;;;;4951310;28;20090;-78
2021/03/16 04:23:34;;;;;;;14.27;3.85;;;;;;;;;;4966687;28;20117;-77
2021/03/16 04:26:01;;;;;;;17.48;4.80;;;;;;;;;;4952440;28;20130;-78
2021/03/16 04:28:29;;;;;;;15.02;3.45;;;;;;;;;;4965991;28;20047;-77
2021/03/16 04:30:56;;;;;;;11.88;4.22;;;;;;;;;;4951008;28;20163;-77
2021/03/16 04:33:22;;;;;;;14.65;3.30;;;;;;;;;;4951145;29;20086;-78
2021/03/16 04:35:50;;;;;;;13.73;3.85;;;;;;;;;;4952043;29;20067;-78
2021/03/16 04:38:16;;;;;;;19.65;3.70;;;;;;;;;;4951536;29;20158;-77
2021/03/16 04:40:44;;;;;;;11.00;3.83;;;;;;;;;;4965714;28;20115;-77
2021/03/16 04:43:11;;;;;;;11.35;3.70;;;;;;;;;;4965687;28;20058;-78
2021/03/16 04:45:37;;;;;;;17.70;3.88;;;;;;;;;;4966314;28;20083;-78
2021/03/16 04:48:04;;;;;;;7.40;3.15;;;;;;;;;;4966015;28;20071;-77
2021/03/16 04:50:31;;;;;;;11.65;2.97;;;;;;;;;;4965402;28;20071;-77
2021/03/16 04:52:58;;;;;;;22.02;3.72;;;;;;;;;;4951124;28;20078;-78
2021/03/16 04:55:25;;;;;;;15.50;2.70;;;;;;;;;;4950785;29;20074;-78
2021/03/16 04:57:52;;;;;;;13.57;3.65;;;;;;;;;;4950163;28;20110;-77
2021/03/16 05:00:19;;;;;;;16.10;3.60;;;;;;;;;;4950470;28;20151;-78
2021/03/16 05:02:45;;;;;;;10.82;3.22;;;;;;;;;;4950853;29;20055;-78
2021/03/16 05:05:13;;;;;;;8.68;2.80;;;;;;;;;;4965492;28;20051;-77
2021/03/16 05:07:39;;;;;;;14.77;3.80;;;;;;;;;;4965288;28;20051;-77
2021/03/16 05:10:06;;;;;;;16.02;3.70;;;;;;;;;;4965020;28;20502;-77
2021/03/16 05:12:33;;;;;;;13.85;3.63;;;;;;;;;;4950182;28;20138;-77
2021/03/16 05:15:00;;;;;;;12.63;3.45;;;;;;;;;;4950075;29;20058;-77
2021/03/16 05:17:26;;;;;;;12.43;3.75;;;;;;;;;;4950665;29;20134;-78
2021/03/16 05:19:53;;;;;;;11.25;3.70;;;;;;;;;;4965056;28;20082;-77
2021/03/16 05:22:20;;;;;;;13.93;4.00;;;;;;;;;;4950575;28;20059;-78
2021/03/16 05:24:47;;;;;;;18.77;4.55;;;;;;;;;;4950523;29;20739;-77
2021/03/16 05:27:13;;;;;;;14.70;3.97;;;;;;;;;;4950283;28;20078;-77
2021/03/16 05:29:40;;;;;;;11.48;3.70;;;;;;;;;;4950392;29;20051;-77
2021/03/16 05:32:07;;;;;;;14.40;4.38;;;;;;;;;;4950376;28;20560;-77
2021/03/16 05:34:34;;;;;;;13.75;3.35;;;;;;;;;;4965305;28;20086;-77
2021/03/16 05:37:01;;;;;;;9.25;3.42;;;;;;;;;;4965079;28;20050;-77
2021/03/16 05:39:27;;;;;;;11.63;3.20;;;;;;;;;;4949482;28;20057;-77
2021/03/16 05:41:54;;;;;;;10.25;3.42;;;;;;;;;;4949685;29;20648;-77
2021/03/16 05:44:22;;;;;;;19.08;5.68;;;;;;;;;;4950091;29;20134;-77
2021/03/16 05:46:49;;;;;;;17.60;7.03;;;;;;;;;;4949950;28;20082;-77
2021/03/16 05:49:17;;;;;;;24.45;10.18;;;;;;;;;;4948816;29;20544;-77
2021/03/16 05:51:43;;;;;;;14.25;9.43;;;;;;;;;;4949039;28;20055;-76
2021/03/16 05:54:10;;;;;;;11.32;3.85;;;;;;;;;;4949583;29;20055;-78
2021/03/16 05:56:39;;;;;;;9.40;4.53;;;;;;;;;;4950364;28;20110;-77
2021/03/16 05:59:23;;;;;;;21.27;4.53;;;;;;;;;;4961982;28;20420;-78
2021/03/16 06:01:50;;;;;;;10.30;3.20;;;;;;;;;;4949797;28;20047;-76
2021/03/16 06:04:18;;;;;;;19.70;5.30;;;;;;;;;;4964685;28;20058;-76
2021/03/16 06:06:48;;;;;;;17.25;4.03;;;;;;;;;;4965751;28;20078;-76
2021/03/16 06:09:14;;;;;;;17.75;4.03;;;;;;;;;;4965647;28;20468;-79
2021/03/16 06:11:48;;;;;;;10.65;5.25;;;;;;;;;;4969538;28;20538;-78
2021/03/16 06:14:15;;;;;;;20.42;11.30;;;;;;;;;;4955172;28;20121;-78
2021/03/16 06:16:42;;;;;;;14.68;5.05;;;;;;;;;;4954183;28;20435;-79
2021/03/16 06:19:09;;;;;;;13.02;6.25;;;;;;;;;;4967883;28;20460;-76
2021/03/16 06:21:36;;;;;;;14.75;6.07;;;;;;;;;;4967926;28;20093;-78
2021/03/16 06:24:03;;;;;;;20.65;4.75;;;;;;;;;;4967009;28;20078;-78
2021/03/16 06:26:30;;;;;;;12.48;3.92;;;;;;;;;;4953083;28;20158;-76
2021/03/16 06:29:15;;;;;;;13.38;3.63;;;;;;;;;;4968534;28;20126;-76
2021/03/16 06:31:42;;;;;;;10.93;4.15;;;;;;;;;;4953615;28;20122;-78
2021/03/16 06:34:18;;;;;;;11.93;5.18;;;;;;;;;;4968397;28;20138;-77
2021/03/16 06:36:47;;;;;;;10.20;3.55;;;;;;;;;;4953121;28;20087;-78
2021/03/16 06:39:17;;;;;;;10.00;3.75;;;;;;;;;;4951704;29;20112;-78
2021/03/16 06:41:43;;;;;;;17.90;4.35;;;;;;;;;;4966531;28;20051;-78
2021/03/16 06:44:16;;;;;;;15.85;3.85;;;;;;;;;;4966615;28;20251;-78
2021/03/16 06:46:43;;;;;;;13.50;3.78;;;;;;;;;;4952839;29;20182;-78
2021/03/16 06:49:13;;;;;;;11.73;3.95;;;;;;;;;;4952083;29;20546;-78
2021/03/16 06:51:40;;;;;;;11.75;3.15;;;;;;;;;;4952393;29;20141;-78
2021/03/16 06:54:07;;;;;;;14.95;3.17;;;;;;;;;;4952145;29;20082;-78
2021/03/16 06:56:34;;;;;;;8.80;3.67;;;;;;;;;;4966992;28;20126;-78
2021/03/16 06:59:01;;;;;;;11.25;3.33;;;;;;;;;;4952938;28;20083;-78
2021/03/16 07:01:31;;;;;;;13.60;3.47;;;;;;;;;;4967476;28;20047;-78
2021/03/16 07:04:00;;;;;;;13.43;3.40;;;;;;;;;;4967336;28;20054;-78
2021/03/16 07:06:27;;;;;;;7.43;2.88;;;;;;;;;;4952608;29;20110;-78
2021/03/16 07:08:54;;;;;;;6.53;2.65;;;;;;;;;;4966921;28;20098;-78
2021/03/16 07:11:23;;;;;;;7.13;2.85;;;;;;;;;;4952283;28;20126;-78
2021/03/16 07:13:50;;;;;;;14.75;3.10;;;;;;;;;;4952748;29;20066;-78
2021/03/16 07:16:17;;;;;;;13.95;3.40;;;;;;;;;;4967040;28;20150;-78
2021/03/16 07:18:45;;;;;;;9.48;3.10;;;;;;;;;;4966607;28;20110;-78
2021/03/16 07:24:09;;;;;;;14.27;3.55;;;;;;;;;;5197469;23;20446;-80
2021/03/16 07:26:38;;;;;;;8.82;2.83;;;;;;;;;;4990540;28;20054;-80
2021/03/16 07:29:05;;;;;;;12.13;2.95;;;;;;;;;;4990373;28;20061;-80
2021/03/16 07:31:36;;;;;;;12.45;3.10;;;;;;;;;;4990039;28;20117;-80
2021/03/16 07:34:07;;;;;;;8.77;2.58;;;;;;;;;;4990037;28;20450;-79
2021/03/16 07:36:35;;;;;;;9.70;2.50;;;;;;;;;;4991270;28;20132;-80
2021/03/16 07:39:05;;;;;;;10.45;2.70;;;;;;;;;;5052638;23;20085;-80
2021/03/16 07:41:36;;;;;;;8.20;2.80;;;;;;;;;;4990163;28;20070;-80
2021/03/16 07:44:07;;;;;;;10.55;2.72;;;;;;;;;;4991537;28;20050;-80
2021/03/16 07:46:41;;;;;;;7.07;2.90;;;;;;;;;;4994766;28;20077;-80
2021/03/16 07:49:08;;;;;;;9.65;2.72;;;;;;;;;;4992722;28;20125;-80
2021/03/16 07:51:36;;;;;;;10.18;3.45;;;;;;;;;;4993098;28;20058;-80
2021/03/16 07:54:04;;;;;;;5.68;2.45;;;;;;;;;;4990887;28;20129;-80
2021/03/16 07:56:33;;;;;;;7.13;3.00;;;;;;;;;;4994618;28;20117;-80
2021/03/16 08:01:46;;;;;;;5.53;2.78;;;;;;;;;;5190900;23;20062;-79
2021/03/16 08:04:14;;;;;;;7.93;3.25;;;;;;;;;;4989326;28;20061;-80
2021/03/16 08:06:42;;;;;;;16.70;3.05;;;;;;;;;;4990476;28;20104;-80
2021/03/16 08:09:20;;;;;;;10.98;3.65;;;;;;;;;;5070309;23;20102;-79
2021/03/16 08:11:46;;;;;;;9.45;4.05;;;;;;;;;;4950462;29;20118;-77
2021/03/16 08:14:23;;;;;;;12.32;3.70;;;;;;;;;;4950780;29;20133;-77
2021/03/16 08:16:50;;;;;;;8.98;2.97;;;;;;;;;;4965261;28;20137;-77
2021/03/16 08:19:20;;;;;;;11.70;3.75;;;;;;;;;;4964932;28;20138;-76
2021/03/16 08:21:56;;;;;;;6.20;2.88;;;;;;;;;;4964764;28;20133;-76
2021/03/16 08:24:22;;;;;;;5.95;3.00;;;;;;;;;;4950467;29;20047;-77
2021/03/16 08:26:50;;;;;;;13.48;4.13;;;;;;;;;;4965176;28;20076;-77
2021/03/16 08:29:25;;;;;;;12.30;3.88;;;;;;;;;;4950434;29;20867;-80
2021/03/16 08:31:52;;;;;;;12.15;5.00;;;;;;;;;;4966038;28;20106;-80
2021/03/16 08:34:21;;;;;;;12.48;3.60;;;;;;;;;;5151211;23;20046;-77
2021/03/16 08:36:47;;;;;;;10.23;4.00;;;;;;;;;;4989746;28;20134;-78
2021/03/16 08:39:21;;;;;;;10.73;4.05;;;;;;;;;;4990251;28;20050;-78
2021/03/16 08:41:55;;;;;;;13.43;4.05;;;;;;;;;;4988130;28;20100;-79
2021/03/16 08:44:23;;;;;;;11.07;4.20;;;;;;;;;;4988189;28;20057;-82
2021/03/16 08:46:49;;;;;;;10.82;3.70;;;;;;;;;;4988789;28;20062;-79
2021/03/16 08:52:35;;;;;;;12.23;5.35;;;;;;;;;;5007456;28;20491;-80
2021/03/16 08:55:02;;;;;;;14.23;4.20;;;;;;;;;;5007883;28;20137;-80
2021/03/16 08:57:30;;;;;;;11.68;4.80;;;;;;;;;;5007800;28;20132;-80
2021/03/16 08:59:58;;;;;;;9.75;3.80;;;;;;;;;;5007277;28;20058;-80
2021/03/16 09:02:29;;;;;;;17.83;4.30;;;;;;;;;;5008624;28;20058;-79
2021/03/16 09:04:59;;;;;;;10.80;4.72;;;;;;;;;;5007419;28;20061;-79
2021/03/16 09:07:27;;;;;;;16.42;4.38;;;;;;;;;;5007500;28;20152;-79
2021/03/16 09:10:07;;;;;;;12.85;4.00;;;;;;;;;;5008524;28;20107;-79
2021/03/16 09:12:35;;;;;;;14.48;5.30;;;;;;;;;;5007648;28;20052;-80
2021/03/16 09:15:09;;;;;;;23.45;6.00;;;;;;;;;;5007701;28;20046;-79
2021/03/16 09:17:37;;;;;;;19.23;5.70;;;;;;;;;;5008767;28;20475;-79
2021/03/16 09:20:08;;;;;;;11.98;5.38;;;;;;;;;;5008282;28;20053;-79
2021/03/16 09:22:35;;;;;;;11.38;4.95;;;;;;;;;;5006689;28;20529;-79
2021/03/16 09:25:02;;;;;;;18.63;5.20;;;;;;;;;;5007100;28;20050;-79
2021/03/16 09:27:28;;;;;;;11.25;5.22;;;;;;;;;;5006309;28;20137;-80
2021/03/16 09:29:55;;;;;;;18.95;6.15;;;;;;;;;;5008208;28;20136;-79
2021/03/16 09:32:23;;;;;;;15.88;6.20;;;;;;;;;;5007974;28;20077;-79
2021/03/16 09:34:50;;;;;;;12.25;5.55;;;;;;;;;;5006956;28;20133;-79
2021/03/16 09:37:21;;;;;;;14.50;6.45;;;;;;;;;;5006943;28;20053;-80
2021/03/16 09:40:14;;;;;;;11.95;4.60;;;;;;;;;;5006781;28;20100;-78
2021/03/16 09:42:46;;;;;;;11.80;4.68;;;;;;;;;;5005064;28;20046;-78
2021/03/16 09:45:15;;;;;;;11.43;5.03;;;;;;;;;;5007529;28;20470;-78
2021/03/16 09:47:42;;;;;;;10.32;4.80;;;;;;;;;;5006095;28;20131;-80
2021/03/16 09:50:11;;;;;;;11.77;5.05;;;;;;;;;;5007360;28;20810;-80
2021/03/16 09:52:37;;;;;;;12.75;5.45;;;;;;;;;;5007619;28;20073;-77
2021/03/16 09:55:05;;;;;;;10.68;5.05;;;;;;;;;;5008016;28;20078;-77
2021/03/16 09:57:32;;;;;;;8.32;4.65;;;;;;;;;;5007606;28;20046;-78
2021/03/16 10:00:00;;;;;;;9.25;4.80;;;;;;;;;;5008687;28;20650;-77
2021/03/16 10:02:40;;;;;;;12.60;5.55;;;;;;;;;;5006639;28;20453;-77
2021/03/16 10:05:11;;;;;;;12.07;4.90;;;;;;;;;;5008170;28;20054;-77
2021/03/16 10:07:41;;;;;;;8.15;5.70;;;;;;;;;;5008486;28;20133;-77
2021/03/16 10:10:19;;;;;;;10.05;5.57;;;;;;;;;;5007636;28;20060;-77
2021/03/16 10:12:50;;;;;;;12.13;5.63;;;;;;;;;;5085755;22;20046;-77
2021/03/16 10:15:28;;;;;;;9.95;5.07;;;;;;;;;;5027294;28;20041;-77
2021/03/16 10:17:56;;;;;;;8.45;5.50;;;;;;;;;;5027794;28;20554;-77
2021/03/16 10:20:24;;;;;;;13.07;5.22;;;;;;;;;;5042148;28;20058;-77
2021/03/16 10:22:55;;;;;;;10.88;5.30;;;;;;;;;;5027151;28;20679;-81
2021/03/16 10:25:24;;;;;;;11.25;5.45;;;;;;;;;;5042200;28;20080;-80
2021/03/16 10:28:01;;;;;;;10.57;5.38;;;;;;;;;;5027841;28;20115;-80
2021/03/16 10:30:32;;;;;;;7.55;5.10;;;;;;;;;;5028104;28;20633;-81
2021/03/16 10:33:04;;;;;;;11.65;5.45;;;;;;;;;;5042618;28;20093;-80
2021/03/16 10:35:33;;;;;;;11.32;5.00;;;;;;;;;;5027493;28;20160;-80
2021/03/16 10:38:00;;;;;;;14.18;6.28;;;;;;;;;;5043503;28;20115;-80
2021/03/16 10:40:26;;;;;;;11.68;5.47;;;;;;;;;;5042943;28;20081;-80
2021/03/16 10:42:53;;;;;;;15.57;6.57;;;;;;;;;;5028048;28;20071;-80
2021/03/16 10:45:20;;;;;;;14.23;6.07;;;;;;;;;;5042602;28;20056;-80
2021/03/16 10:47:47;;;;;;;12.45;6.00;;;;;;;;;;5042933;28;20485;-80
2021/03/16 10:50:15;;;;;;;14.13;5.97;;;;;;;;;;5042760;28;20057;-80
2021/03/16 10:52:42;;;;;;;10.27;5.80;;;;;;;;;;5043304;28;20060;-80
2021/03/16 10:55:09;;;;;;;11.70;5.72;;;;;;;;;;5027709;28;20452;-80
2021/03/16 10:57:36;;;;;;;9.50;5.22;;;;;;;;;;5045095;28;20045;-80
2021/03/16 11:00:07;;;;;;;9.68;4.93;;;;;;;;;;5029459;28;20569;-80
2021/03/16 11:02:34;;;;;;;16.95;5.50;;;;;;;;;;5045270;28;20053;-79
2021/03/16 11:05:01;;;;;;;12.75;5.90;;;;;;;;;;5045654;28;20056;-79
2021/03/16 11:07:27;;;;;;;16.63;6.18;;;;;;;;;;5046213;28;20140;-79
2021/03/16 11:09:54;;;;;;;13.00;6.22;;;;;;;;;;5045600;28;20470;-79
2021/03/16 11:12:21;;;;;;;14.85;5.50;;;;;;;;;;5045941;28;20047;-80
2021/03/16 11:14:48;;;;;;;15.35;5.93;;;;;;;;;;5045890;28;20129;-79
2021/03/16 11:17:14;;;;;;;10.65;5.57;;;;;;;;;;5045250;28;20049;-79
2021/03/16 11:19:41;;;;;;;11.50;6.60;;;;;;;;;;5044896;28;20123;-77
2021/03/16 11:22:08;;;;;;;9.85;5.72;;;;;;;;;;5044981;28;20099;-77
2021/03/16 11:24:35;;;;;;;10.68;5.40;;;;;;;;;;5029805;28;20053;-76
2021/03/16 11:27:09;;;;;;;11.57;5.25;;;;;;;;;;5044504;28;20140;-77
2021/03/16 11:29:36;;;;;;;11.63;6.15;;;;;;;;;;5029476;28;20057;-77
2021/03/16 11:32:02;;;;;;;14.32;5.80;;;;;;;;;;5045163;28;20481;-77
2021/03/16 11:34:30;;;;;;;9.50;5.45;;;;;;;;;;5045150;28;20049;-77
2021/03/16 11:36:57;;;;;;;12.60;6.68;;;;;;;;;;5030025;28;20081;-77
2021/03/16 11:39:24;;;;;;;11.82;5.15;;;;;;;;;;5029496;28;20128;-78
2021/03/16 11:41:50;;;;;;;10.63;5.90;;;;;;;;;;5113731;22;20088;-78
2021/03/16 11:44:17;;;;;;;10.15;5.80;;;;;;;;;;5025975;28;20129;-79
2021/03/16 11:46:44;;;;;;;6.95;5.07;;;;;;;;;;5010440;28;20084;-78
2021/03/16 11:49:11;;;;;;;12.35;5.32;;;;;;;;;;5025755;28;20052;-79
2021/03/16 11:51:37;;;;;;;9.73;5.40;;;;;;;;;;5012794;28;20050;-79
2021/03/16 11:54:04;;;;;;;10.32;4.82;;;;;;;;;;5011759;28;20514;-78
2021/03/16 11:56:31;;;;;;;10.20;5.82;;;;;;;;;;5009876;28;20104;-78
2021/03/16 11:58:58;;;;;;;9.05;5.38;;;;;;;;;;5009543;28;20081;-78
2021/03/16 12:01:24;;;;;;;10.52;5.30;;;;;;;;;;5024921;28;20133;-77
2021/03/16 12:03:55;;;;;;;12.10;5.10;;;;;;;;;;5009787;28;20073;-79
2021/03/16 12:06:22;;;;;;;10.98;5.97;;;;;;;;;;5009993;28;20112;-78
2021/03/16 12:08:49;;;;;;;11.23;5.43;;;;;;;;;;5024729;28;20174;-78
2021/03/16 12:11:19;;;;;;;12.35;5.63;;;;;;;;;;5024109;28;20049;-79
2021/03/16 12:13:46;;;;;;;9.02;5.07;;;;;;;;;;5009313;28;20133;-79
2021/03/16 12:16:13;;;;;;;11.25;4.80;;;;;;;;;;5023822;28;20084;-79
2021/03/16 12:18:39;;;;;;;9.55;5.35;;;;;;;;;;5023727;28;20490;-79
2021/03/16 12:21:06;;;;;;;7.95;4.80;;;;;;;;;;5008633;28;20145;-79
2021/03/16 12:23:33;;;;;;;8.93;4.97;;;;;;;;;;5008748;28;20053;-80
2021/03/16 12:26:00;;;;;;;7.70;4.53;;;;;;;;;;5008924;28;20050;-79
2021/03/16 12:28:27;;;;;;;8.25;4.90;;;;;;;;;;5024128;28;20817;-79
2021/03/16 12:30:53;;;;;;;9.02;5.10;;;;;;;;;;5009069;28;20236;-79
2021/03/16 12:33:21;;;;;;;16.77;5.18;;;;;;;;;;5024006;28;20434;-78
2021/03/16 12:35:51;;;;;;;12.40;5.20;;;;;;;;;;5023276;28;20046;-78
2021/03/16 12:38:17;;;;;;;14.90;4.95;;;;;;;;;;5008514;28;20073;-78
2021/03/16 12:40:44;;;;;;;10.52;4.68;;;;;;;;;;5023317;28;20139;-78
2021/03/16 12:43:11;;;;;;;10.27;5.05;;;;;;;;;;5009164;28;20081;-79
2021/03/16 12:45:38;;;;;;;9.27;4.80;;;;;;;;;;5008385;28;20686;-80
2021/03/16 12:48:04;;;;;;;9.65;4.68;;;;;;;;;;5023200;28;20159;-80
2021/03/16 12:50:31;;;;;;;10.50;4.97;;;;;;;;;;5007443;28;20077;-79
2021/03/16 12:52:58;;;;;;;9.88;4.78;;;;;;;;;;5008557;28;20071;-79
2021/03/16 12:55:25;;;;;;;14.23;5.93;;;;;;;;;;5023768;28;20092;-78
2021/03/16 12:57:52;;;;;;;13.18;5.20;;;;;;;;;;5008943;28;20054;-79
2021/03/16 13:00:19;;;;;;;8.93;4.55;;;;;;;;;;5023940;28;20141;-79
2021/03/16 13:02:46;;;;;;;10.43;5.10;;;;;;;;;;5008787;28;20053;-79
2021/03/16 13:05:13;;;;;;;13.25;5.18;;;;;;;;;;5023202;28;20582;-79
2021/03/16 13:07:40;;;;;;;10.50;5.25;;;;;;;;;;5008336;28;20100;-79
2021/03/16 13:10:07;;;;;;;12.88;5.13;;;;;;;;;;5008532;28;20397;-79
2021/03/16 13:12:33;;;;;;;17.35;5.20;;;;;;;;;;5008360;28;20441;-79
2021/03/16 13:15:00;;;;;;;14.43;5.25;;;;;;;;;;5008555;28;20085;-79
2021/03/16 13:17:27;;;;;;;12.07;4.57;;;;;;;;;;5008216;28;20065;-79
2021/03/16 13:19:54;;;;;;;11.02;5.47;;;;;;;;;;5008104;28;20053;-79
2021/03/16 13:22:21;;;;;;;10.43;4.55;;;;;;;;;;5023652;28;20542;-79
2021/03/16 13:24:48;;;;;;;10.63;4.68;;;;;;;;;;5008479;28;20053;-80
2021/03/16 13:27:15;;;;;;;10.40;4.53;;;;;;;;;;5008372;28;20108;-79
2021/03/16 13:29:42;;;;;;;9.85;5.18;;;;;;;;;;5008733;28;20441;-80
2021/03/16 13:32:09;;;;;;;14.27;5.40;;;;;;;;;;5008300;28;20077;-79
2021/03/16 13:34:39;;;;;;;17.77;5.35;;;;;;;;;;5008519;28;20128;-79
2021/03/16 13:37:06;;;;;;;12.02;4.35;;;;;;;;;;5008092;28;20053;-79
2021/03/16 13:39:34;;;;;;;10.35;4.63;;;;;;;;;;5022627;28;20060;-79
2021/03/16 13:42:01;;;;;;;13.07;5.20;;;;;;;;;;5008047;28;20495;-78
2021/03/16 13:44:27;;;;;;;8.60;4.18;;;;;;;;;;5008805;28;20619;-78
2021/03/16 13:46:55;;;;;;;18.90;5.28;;;;;;;;;;5006343;28;20529;-79
2021/03/16 13:49:22;;;;;;;14.20;4.95;;;;;;;;;;5021348;28;20065;-79
2021/03/16 13:51:49;;;;;;;14.70;4.72;;;;;;;;;;5023080;28;20049;-79
2021/03/16 13:54:16;;;;;;;12.63;5.15;;;;;;;;;;5023316;28;20425;-79
2021/03/16 13:56:43;;;;;;;16.52;5.15;;;;;;;;;;5023367;28;20064;-79
2021/03/16 13:59:09;;;;;;;10.32;4.90;;;;;;;;;;5008022;28;20050;-79
2021/03/16 14:01:36;;;;;;;18.08;4.82;;;;;;;;;;5007853;28;20054;-79
2021/03/16 14:04:04;;;;;;;10.60;4.45;;;;;;;;;;5008501;28;20065;-78
2021/03/16 14:06:34;;;;;;;12.10;5.30;;;;;;;;;;5023272;28;20058;-79
2021/03/16 14:09:01;;;;;;;14.55;5.20;;;;;;;;;;5023112;28;20049;-79
2021/03/16 14:11:27;;;;;;;13.27;4.65;;;;;;;;;;5007763;28;20046;-79
2021/03/16 14:13:54;;;;;;;14.45;5.22;;;;;;;;;;5008402;28;20131;-79
2021/03/16 14:16:21;;;;;;;13.70;4.55;;;;;;;;;;5007263;28;20041;-79
2021/03/16 14:18:48;;;;;;;14.20;4.80;;;;;;;;;;5007367;28;20054;-79
2021/03/16 14:21:15;;;;;;;17.23;4.93;;;;;;;;;;5006650;28;20144;-79
2021/03/16 14:23:41;;;;;;;14.23;4.97;;;;;;;;;;5007713;28;20440;-79
2021/03/16 14:26:09;;;;;;;13.15;4.28;;;;;;;;;;5008455;28;20119;-79
2021/03/16 14:28:35;;;;;;;17.42;4.72;;;;;;;;;;5008641;28;20501;-79
2021/03/16 14:31:02;;;;;;;13.52;4.75;;;;;;;;;;5025470;28;20263;-79
2021/03/16 14:33:30;;;;;;;16.85;5.00;;;;;;;;;;5086402;23;20046;-79
2021/03/16 14:35:57;;;;;;;12.52;4.30;;;;;;;;;;5032151;28;20060;-79
2021/03/16 14:38:24;;;;;;;11.65;4.63;;;;;;;;;;5031835;28;20049;-79
2021/03/16 14:40:50;;;;;;;17.30;4.72;;;;;;;;;;5031328;28;20140;-79
2021/03/16 14:43:18;;;;;;;10.15;3.75;;;;;;;;;;5046315;28;20042;-79
2021/03/16 14:45:48;;;;;;;12.52;4.25;;;;;;;;;;5031123;28;20181;-79
2021/03/16 14:48:19;;;;;;;16.52;4.43;;;;;;;;;;5031054;28;20064;-79